sensor_id;sensor_type;location;lat;lon;timestamp;P1;durP1;ratioP1;P2;durP2;ratioP2
6207;SDS011;3137;51.550;7.060;2023-02-15T00:01:57;52.20;;;27.80;;
6207;SDS011;3137;51.550;7.060;2023-02-15T00:04:24;59.63;;;29.20;;
6207;SDS011;3137;51.550;7.060;2023-02-15T00:07:12;51.43;;;28.63;;
6207;SDS011;3137;51.550;7.060;2023-02-15T00:09:39;61.27;;;29.57;;
6207;SDS011;3137;51.550;7.060;2023-02-15T00:12:06;60.17;;;29.07;;
6207;SDS011;3137;51.550;7.060;2023-02-15T00:14:32;64.47;;;29.60;;
6207;SDS011;3137;51.550;7.060;2023-02-15T00:16:58;51.23;;;28.93;;
6207;SDS011;3137;51.550;7.060;2023-02-15T00:19:26;56.13;;;29.43;;
6207;SDS011;3137;51.550;7.060;2023-02-15T00:21:52;70.53;;;31.17;;
6207;SDS011;3137;51.550;7.060;2023-02-15T00:24:19;55.70;;;29.00;;
6207;SDS011;3137;51.550;7.060;2023-02-15T00:26:46;63.97;;;30.97;;
6207;SDS011;3137;51.550;7.060;2023-02-15T00:29:14;51.97;;;29.73;;
6207;SDS011;3137;51.550;7.060;2023-02-15T00:31:42;59.27;;;31.93;;
6207;SDS011;3137;51.550;7.060;2023-02-15T00:34:16;70.43;;;32.27;;
6207;SDS011;3137;51.550;7.060;2023-02-15T00:36:44;59.73;;;31.73;;
6207;SDS011;3137;51.550;7.060;2023-02-15T00:39:13;67.70;;;31.17;;
6207;SDS011;3137;51.550;7.060;2023-02-15T00:41:40;55.77;;;29.07;;
6207;SDS011;3137;51.550;7.060;2023-02-15T00:44:07;52.03;;;26.83;;
6207;SDS011;3137;51.550;7.060;2023-02-15T00:46:34;43.67;;;25.83;;
6207;SDS011;3137;51.550;7.060;2023-02-15T00:49:01;47.17;;;25.97;;
6207;SDS011;3137;51.550;7.060;2023-02-15T00:51:29;49.57;;;26.57;;
6207;SDS011;3137;51.550;7.060;2023-02-15T00:53:56;48.50;;;26.50;;
6207;SDS011;3137;51.550;7.060;2023-02-15T00:56:22;48.97;;;26.23;;
6207;SDS011;3137;51.550;7.060;2023-02-15T00:58:49;52.87;;;26.63;;
6207;SDS011;3137;51.550;7.060;2023-02-15T01:01:16;54.97;;;27.40;;
6207;SDS011;3137;51.550;7.060;2023-02-15T01:03:45;47.90;;;26.20;;
6207;SDS011;3137;51.550;7.060;2023-02-15T01:06:13;49.27;;;26.93;;
6207;SDS011;3137;51.550;7.060;2023-02-15T01:08:42;54.00;;;27.67;;
6207;SDS011;3137;51.550;7.060;2023-02-15T01:11:10;51.53;;;28.47;;
6207;SDS011;3137;51.550;7.060;2023-02-15T01:13:39;59.93;;;28.40;;
6207;SDS011;3137;51.550;7.060;2023-02-15T01:16:07;51.23;;;27.47;;
6207;SDS011;3137;51.550;7.060;2023-02-15T01:18:34;55.90;;;28.60;;
6207;SDS011;3137;51.550;7.060;2023-02-15T01:21:08;59.33;;;28.53;;
6207;SDS011;3137;51.550;7.060;2023-02-15T01:23:42;56.77;;;27.97;;
6207;SDS011;3137;51.550;7.060;2023-02-15T01:26:11;59.80;;;29.77;;
6207;SDS011;3137;51.550;7.060;2023-02-15T01:28:38;55.50;;;28.00;;
6207;SDS011;3137;51.550;7.060;2023-02-15T01:31:08;62.50;;;31.87;;
6207;SDS011;3137;51.550;7.060;2023-02-15T01:33:37;59.80;;;30.30;;
6207;SDS011;3137;51.550;7.060;2023-02-15T01:36:04;68.83;;;30.87;;
6207;SDS011;3137;51.550;7.060;2023-02-15T01:38:31;58.10;;;30.00;;
6207;SDS011;3137;51.550;7.060;2023-02-15T01:40:58;63.97;;;28.87;;
6207;SDS011;3137;51.550;7.060;2023-02-15T01:43:46;49.77;;;28.23;;
6207;SDS011;3137;51.550;7.060;2023-02-15T01:46:14;50.33;;;26.80;;
6207;SDS011;3137;51.550;7.060;2023-02-15T01:48:47;57.67;;;28.33;;
6207;SDS011;3137;51.550;7.060;2023-02-15T01:51:19;56.77;;;29.17;;
6207;SDS011;3137;51.550;7.060;2023-02-15T01:53:54;52.73;;;28.07;;
6207;SDS011;3137;51.550;7.060;2023-02-15T01:56:27;53.00;;;26.17;;
6207;SDS011;3137;51.550;7.060;2023-02-15T01:58:57;50.13;;;26.27;;
6207;SDS011;3137;51.550;7.060;2023-02-15T02:01:26;50.53;;;26.30;;
6207;SDS011;3137;51.550;7.060;2023-02-15T02:06:30;55.10;;;28.77;;
6207;SDS011;3137;51.550;7.060;2023-02-15T02:09:00;50.87;;;27.40;;
6207;SDS011;3137;51.550;7.060;2023-02-15T02:11:27;60.13;;;28.60;;
6207;SDS011;3137;51.550;7.060;2023-02-15T02:13:54;53.57;;;27.83;;
6207;SDS011;3137;51.550;7.060;2023-02-15T02:18:58;53.70;;;27.43;;
6207;SDS011;3137;51.550;7.060;2023-02-15T02:30:25;49.73;;;26.43;;
6207;SDS011;3137;51.550;7.060;2023-02-15T02:39:06;53.00;;;27.53;;
6207;SDS011;3137;51.550;7.060;2023-02-15T02:47:29;52.97;;;26.37;;
6207;SDS011;3137;51.550;7.060;2023-02-15T02:50:01;51.57;;;25.30;;
6207;SDS011;3137;51.550;7.060;2023-02-15T02:55:03;63.70;;;27.83;;
6207;SDS011;3137;51.550;7.060;2023-02-15T02:57:37;52.50;;;27.50;;
6207;SDS011;3137;51.550;7.060;2023-02-15T03:00:12;48.60;;;26.07;;
6207;SDS011;3137;51.550;7.060;2023-02-15T03:02:41;62.60;;;28.00;;
6207;SDS011;3137;51.550;7.060;2023-02-15T03:05:13;55.87;;;26.93;;
6207;SDS011;3137;51.550;7.060;2023-02-15T03:07:44;50.33;;;25.53;;
6207;SDS011;3137;51.550;7.060;2023-02-15T03:10:14;46.97;;;26.43;;
6207;SDS011;3137;51.550;7.060;2023-02-15T03:12:43;59.10;;;28.87;;
6207;SDS011;3137;51.550;7.060;2023-02-15T03:15:12;59.03;;;28.97;;
6207;SDS011;3137;51.550;7.060;2023-02-15T03:17:43;52.83;;;26.73;;
6207;SDS011;3137;51.550;7.060;2023-02-15T03:22:40;54.53;;;27.97;;
6207;SDS011;3137;51.550;7.060;2023-02-15T03:25:14;54.43;;;28.43;;
6207;SDS011;3137;51.550;7.060;2023-02-15T03:27:47;56.73;;;28.07;;
6207;SDS011;3137;51.550;7.060;2023-02-15T03:30:20;54.40;;;28.37;;
6207;SDS011;3137;51.550;7.060;2023-02-15T03:32:48;59.10;;;28.50;;
6207;SDS011;3137;51.550;7.060;2023-02-15T03:35:17;52.33;;;26.93;;
6207;SDS011;3137;51.550;7.060;2023-02-15T03:37:49;47.33;;;27.37;;
6207;SDS011;3137;51.550;7.060;2023-02-15T03:43:14;51.33;;;25.27;;
6207;SDS011;3137;51.550;7.060;2023-02-15T03:45:49;56.93;;;28.77;;
6207;SDS011;3137;51.550;7.060;2023-02-15T03:48:22;55.97;;;27.77;;
6207;SDS011;3137;51.550;7.060;2023-02-15T03:50:53;59.87;;;27.60;;
6207;SDS011;3137;51.550;7.060;2023-02-15T03:53:42;88.53;;;34.60;;
6207;SDS011;3137;51.550;7.060;2023-02-15T03:56:11;90.97;;;34.07;;
6207;SDS011;3137;51.550;7.060;2023-02-15T03:58:37;77.20;;;33.80;;
6207;SDS011;3137;51.550;7.060;2023-02-15T04:01:44;74.57;;;33.33;;
6207;SDS011;3137;51.550;7.060;2023-02-15T04:04:30;74.37;;;33.73;;
6207;SDS011;3137;51.550;7.060;2023-02-15T04:07:00;74.87;;;35.03;;
6207;SDS011;3137;51.550;7.060;2023-02-15T04:09:26;76.43;;;35.70;;
6207;SDS011;3137;51.550;7.060;2023-02-15T04:12:11;64.73;;;31.43;;
6207;SDS011;3137;51.550;7.060;2023-02-15T04:14:38;72.03;;;32.47;;
6207;SDS011;3137;51.550;7.060;2023-02-15T04:17:23;57.73;;;28.37;;
6207;SDS011;3137;51.550;7.060;2023-02-15T04:19:49;56.90;;;29.80;;
6207;SDS011;3137;51.550;7.060;2023-02-15T04:22:34;63.67;;;31.57;;
6207;SDS011;3137;51.550;7.060;2023-02-15T04:25:19;67.47;;;29.57;;
6207;SDS011;3137;51.550;7.060;2023-02-15T04:27:52;64.50;;;29.53;;
6207;SDS011;3137;51.550;7.060;2023-02-15T04:30:21;61.17;;;32.30;;
6207;SDS011;3137;51.550;7.060;2023-02-15T04:32:49;58.30;;;28.43;;
6207;SDS011;3137;51.550;7.060;2023-02-15T04:35:16;59.50;;;29.60;;
6207;SDS011;3137;51.550;7.060;2023-02-15T04:37:43;55.03;;;27.00;;
6207;SDS011;3137;51.550;7.060;2023-02-15T04:40:10;54.50;;;27.17;;
6207;SDS011;3137;51.550;7.060;2023-02-15T04:42:38;65.87;;;30.67;;
6207;SDS011;3137;51.550;7.060;2023-02-15T04:45:04;66.97;;;30.57;;
6207;SDS011;3137;51.550;7.060;2023-02-15T04:47:31;68.43;;;33.67;;
6207;SDS011;3137;51.550;7.060;2023-02-15T04:49:58;70.33;;;30.60;;
6207;SDS011;3137;51.550;7.060;2023-02-15T04:52:24;65.40;;;31.67;;
6207;SDS011;3137;51.550;7.060;2023-02-15T04:54:51;61.70;;;30.93;;
6207;SDS011;3137;51.550;7.060;2023-02-15T04:57:17;64.73;;;31.57;;
6207;SDS011;3137;51.550;7.060;2023-02-15T04:59:43;65.13;;;32.63;;
6207;SDS011;3137;51.550;7.060;2023-02-15T05:02:10;66.20;;;29.77;;
6207;SDS011;3137;51.550;7.060;2023-02-15T05:04:36;57.17;;;29.03;;
6207;SDS011;3137;51.550;7.060;2023-02-15T05:07:03;64.97;;;30.27;;
6207;SDS011;3137;51.550;7.060;2023-02-15T05:09:29;66.70;;;29.77;;
6207;SDS011;3137;51.550;7.060;2023-02-15T05:11:56;63.77;;;32.10;;
6207;SDS011;3137;51.550;7.060;2023-02-15T05:14:22;65.50;;;31.07;;
6207;SDS011;3137;51.550;7.060;2023-02-15T05:16:48;62.43;;;29.77;;
6207;SDS011;3137;51.550;7.060;2023-02-15T05:19:15;57.10;;;30.60;;
6207;SDS011;3137;51.550;7.060;2023-02-15T05:21:41;66.73;;;30.47;;
6207;SDS011;3137;51.550;7.060;2023-02-15T05:24:08;56.30;;;29.10;;
6207;SDS011;3137;51.550;7.060;2023-02-15T05:26:53;54.60;;;29.13;;
6207;SDS011;3137;51.550;7.060;2023-02-15T05:29:37;57.37;;;30.33;;
6207;SDS011;3137;51.550;7.060;2023-02-15T05:32:04;67.80;;;31.07;;
6207;SDS011;3137;51.550;7.060;2023-02-15T05:34:30;73.60;;;30.10;;
6207;SDS011;3137;51.550;7.060;2023-02-15T05:36:57;56.57;;;30.00;;
6207;SDS011;3137;51.550;7.060;2023-02-15T05:39:23;58.03;;;29.43;;
6207;SDS011;3137;51.550;7.060;2023-02-15T05:41:50;61.07;;;30.00;;
6207;SDS011;3137;51.550;7.060;2023-02-15T05:44:16;59.83;;;29.50;;
6207;SDS011;3137;51.550;7.060;2023-02-15T05:46:42;62.70;;;30.80;;
6207;SDS011;3137;51.550;7.060;2023-02-15T05:49:09;66.57;;;29.07;;
6207;SDS011;3137;51.550;7.060;2023-02-15T05:51:35;62.03;;;30.13;;
6207;SDS011;3137;51.550;7.060;2023-02-15T05:54:01;58.40;;;29.07;;
6207;SDS011;3137;51.550;7.060;2023-02-15T05:56:28;63.53;;;29.70;;
6207;SDS011;3137;51.550;7.060;2023-02-15T05:58:54;74.83;;;32.03;;
6207;SDS011;3137;51.550;7.060;2023-02-15T06:01:20;58.67;;;31.53;;
6207;SDS011;3137;51.550;7.060;2023-02-15T06:03:48;61.63;;;31.37;;
6207;SDS011;3137;51.550;7.060;2023-02-15T06:06:15;63.83;;;31.13;;
6207;SDS011;3137;51.550;7.060;2023-02-15T06:08:42;63.47;;;31.43;;
6207;SDS011;3137;51.550;7.060;2023-02-15T06:11:08;71.90;;;31.80;;
6207;SDS011;3137;51.550;7.060;2023-02-15T06:13:35;68.00;;;32.57;;
6207;SDS011;3137;51.550;7.060;2023-02-15T06:16:04;58.00;;;31.27;;
6207;SDS011;3137;51.550;7.060;2023-02-15T06:18:31;63.70;;;30.07;;
6207;SDS011;3137;51.550;7.060;2023-02-15T06:20:58;65.50;;;31.97;;
6207;SDS011;3137;51.550;7.060;2023-02-15T06:23:24;62.60;;;31.73;;
6207;SDS011;3137;51.550;7.060;2023-02-15T06:25:50;57.17;;;31.50;;
6207;SDS011;3137;51.550;7.060;2023-02-15T06:28:17;68.77;;;30.57;;
6207;SDS011;3137;51.550;7.060;2023-02-15T06:30:43;64.30;;;30.83;;
6207;SDS011;3137;51.550;7.060;2023-02-15T06:33:10;64.67;;;31.47;;
6207;SDS011;3137;51.550;7.060;2023-02-15T06:35:36;66.10;;;30.97;;
6207;SDS011;3137;51.550;7.060;2023-02-15T06:38:02;68.27;;;29.80;;
6207;SDS011;3137;51.550;7.060;2023-02-15T06:40:29;57.17;;;30.17;;
6207;SDS011;3137;51.550;7.060;2023-02-15T06:42:55;74.37;;;32.17;;
6207;SDS011;3137;51.550;7.060;2023-02-15T06:45:22;56.93;;;30.77;;
6207;SDS011;3137;51.550;7.060;2023-02-15T06:47:48;62.47;;;30.20;;
6207;SDS011;3137;51.550;7.060;2023-02-15T06:50:14;57.67;;;29.60;;
6207;SDS011;3137;51.550;7.060;2023-02-15T06:52:41;76.50;;;28.90;;
6207;SDS011;3137;51.550;7.060;2023-02-15T06:55:07;63.37;;;29.97;;
6207;SDS011;3137;51.550;7.060;2023-02-15T06:57:33;57.70;;;29.67;;
6207;SDS011;3137;51.550;7.060;2023-02-15T07:00:00;59.43;;;30.47;;
6207;SDS011;3137;51.550;7.060;2023-02-15T07:02:27;57.37;;;26.67;;
6207;SDS011;3137;51.550;7.060;2023-02-15T07:04:53;54.40;;;29.07;;
6207;SDS011;3137;51.550;7.060;2023-02-15T07:07:20;58.83;;;29.63;;
6207;SDS011;3137;51.550;7.060;2023-02-15T07:09:46;56.30;;;29.00;;
6207;SDS011;3137;51.550;7.060;2023-02-15T07:12:12;64.40;;;31.10;;
6207;SDS011;3137;51.550;7.060;2023-02-15T07:14:57;51.93;;;28.83;;
6207;SDS011;3137;51.550;7.060;2023-02-15T07:17:24;62.17;;;30.20;;
6207;SDS011;3137;51.550;7.060;2023-02-15T07:20:03;61.37;;;28.67;;
6207;SDS011;3137;51.550;7.060;2023-02-15T07:22:33;61.23;;;30.53;;
6207;SDS011;3137;51.550;7.060;2023-02-15T07:25:05;71.37;;;32.87;;
6207;SDS011;3137;51.550;7.060;2023-02-15T07:27:33;66.87;;;31.63;;
6207;SDS011;3137;51.550;7.060;2023-02-15T07:30:00;66.07;;;31.73;;
6207;SDS011;3137;51.550;7.060;2023-02-15T07:32:30;59.80;;;30.40;;
6207;SDS011;3137;51.550;7.060;2023-02-15T07:34:58;65.17;;;30.80;;
6207;SDS011;3137;51.550;7.060;2023-02-15T07:37:25;77.77;;;31.73;;
6207;SDS011;3137;51.550;7.060;2023-02-15T07:39:52;75.90;;;34.87;;
6207;SDS011;3137;51.550;7.060;2023-02-15T07:42:18;66.10;;;32.53;;
6207;SDS011;3137;51.550;7.060;2023-02-15T07:44:47;65.40;;;33.17;;
6207;SDS011;3137;51.550;7.060;2023-02-15T07:47:13;65.30;;;31.20;;
6207;SDS011;3137;51.550;7.060;2023-02-15T07:49:39;71.10;;;33.63;;
6207;SDS011;3137;51.550;7.060;2023-02-15T07:52:06;73.23;;;33.87;;
6207;SDS011;3137;51.550;7.060;2023-02-15T07:54:32;74.23;;;33.87;;
6207;SDS011;3137;51.550;7.060;2023-02-15T07:57:00;76.30;;;36.20;;
6207;SDS011;3137;51.550;7.060;2023-02-15T07:59:26;84.27;;;36.43;;
6207;SDS011;3137;51.550;7.060;2023-02-15T08:01:53;88.33;;;41.67;;
6207;SDS011;3137;51.550;7.060;2023-02-15T08:04:22;81.63;;;38.57;;
6207;SDS011;3137;51.550;7.060;2023-02-15T08:06:51;78.63;;;36.37;;
6207;SDS011;3137;51.550;7.060;2023-02-15T08:09:19;95.53;;;37.50;;
6207;SDS011;3137;51.550;7.060;2023-02-15T08:11:46;89.80;;;38.50;;
6207;SDS011;3137;51.550;7.060;2023-02-15T08:14:14;111.67;;;43.40;;
6207;SDS011;3137;51.550;7.060;2023-02-15T08:16:47;87.80;;;39.37;;
6207;SDS011;3137;51.550;7.060;2023-02-15T08:19:16;92.70;;;41.17;;
6207;SDS011;3137;51.550;7.060;2023-02-15T08:21:48;88.67;;;40.97;;
6207;SDS011;3137;51.550;7.060;2023-02-15T08:24:17;89.93;;;40.13;;
6207;SDS011;3137;51.550;7.060;2023-02-15T08:26:45;88.87;;;41.30;;
6207;SDS011;3137;51.550;7.060;2023-02-15T08:29:14;83.00;;;38.00;;
6207;SDS011;3137;51.550;7.060;2023-02-15T08:31:42;82.03;;;39.77;;
6207;SDS011;3137;51.550;7.060;2023-02-15T08:34:09;93.60;;;43.00;;
6207;SDS011;3137;51.550;7.060;2023-02-15T08:36:37;99.23;;;44.30;;
6207;SDS011;3137;51.550;7.060;2023-02-15T08:39:04;88.80;;;44.73;;
6207;SDS011;3137;51.550;7.060;2023-02-15T08:41:33;106.23;;;46.13;;
6207;SDS011;3137;51.550;7.060;2023-02-15T08:44:06;98.60;;;46.13;;
6207;SDS011;3137;51.550;7.060;2023-02-15T08:46:36;108.03;;;47.17;;
6207;SDS011;3137;51.550;7.060;2023-02-15T08:49:05;119.27;;;49.00;;
6207;SDS011;3137;51.550;7.060;2023-02-15T08:51:33;107.93;;;48.43;;
6207;SDS011;3137;51.550;7.060;2023-02-15T08:54:02;115.80;;;50.03;;
6207;SDS011;3137;51.550;7.060;2023-02-15T08:56:35;126.07;;;47.83;;
6207;SDS011;3137;51.550;7.060;2023-02-15T08:59:03;128.00;;;52.83;;
6207;SDS011;3137;51.550;7.060;2023-02-15T09:01:32;118.83;;;50.90;;
6207;SDS011;3137;51.550;7.060;2023-02-15T09:04:00;126.23;;;53.20;;
6207;SDS011;3137;51.550;7.060;2023-02-15T09:06:30;122.30;;;55.07;;
6207;SDS011;3137;51.550;7.060;2023-02-15T09:08:57;116.77;;;53.17;;
6207;SDS011;3137;51.550;7.060;2023-02-15T09:11:25;123.53;;;52.47;;
6207;SDS011;3137;51.550;7.060;2023-02-15T09:14:00;133.17;;;52.57;;
6207;SDS011;3137;51.550;7.060;2023-02-15T09:16:40;126.00;;;51.40;;
6207;SDS011;3137;51.550;7.060;2023-02-15T09:19:08;120.00;;;54.10;;
6207;SDS011;3137;51.550;7.060;2023-02-15T09:21:35;123.63;;;50.23;;
6207;SDS011;3137;51.550;7.060;2023-02-15T09:24:08;109.33;;;50.23;;
6207;SDS011;3137;51.550;7.060;2023-02-15T09:26:38;118.43;;;47.57;;
6207;SDS011;3137;51.550;7.060;2023-02-15T09:29:07;105.90;;;49.03;;
6207;SDS011;3137;51.550;7.060;2023-02-15T09:31:41;99.10;;;45.90;;
6207;SDS011;3137;51.550;7.060;2023-02-15T09:34:12;105.33;;;45.97;;
6207;SDS011;3137;51.550;7.060;2023-02-15T09:36:41;96.20;;;44.50;;
6207;SDS011;3137;51.550;7.060;2023-02-15T09:47:40;84.00;;;43.27;;
6207;SDS011;3137;51.550;7.060;2023-02-15T09:53:00;84.40;;;40.77;;
6207;SDS011;3137;51.550;7.060;2023-02-15T10:04:34;78.07;;;41.63;;
6207;SDS011;3137;51.550;7.060;2023-02-15T10:07:13;71.80;;;38.73;;
6207;SDS011;3137;51.550;7.060;2023-02-15T10:15:28;66.27;;;31.13;;
6207;SDS011;3137;51.550;7.060;2023-02-15T10:21:17;49.47;;;29.17;;
6207;SDS011;3137;51.550;7.060;2023-02-15T10:26:46;61.03;;;30.03;;
6207;SDS011;3137;51.550;7.060;2023-02-15T10:29:18;59.97;;;28.67;;
6207;SDS011;3137;51.550;7.060;2023-02-15T10:32:10;45.13;;;30.27;;
6207;SDS011;3137;51.550;7.060;2023-02-15T10:34:52;52.60;;;28.80;;
6207;SDS011;3137;51.550;7.060;2023-02-15T10:38:09;50.00;;;28.33;;
6207;SDS011;3137;51.550;7.060;2023-02-15T10:46:45;47.43;;;26.57;;
6207;SDS011;3137;51.550;7.060;2023-02-15T10:51:54;47.47;;;27.33;;
6207;SDS011;3137;51.550;7.060;2023-02-15T10:54:36;53.03;;;28.57;;
6207;SDS011;3137;51.550;7.060;2023-02-15T10:57:12;52.80;;;30.02;;
6207;SDS011;3137;51.550;7.060;2023-02-15T11:00:27;43.77;;;26.97;;
6207;SDS011;3137;51.550;7.060;2023-02-15T11:06:02;52.10;;;28.07;;
6207;SDS011;3137;51.550;7.060;2023-02-15T11:08:37;39.00;;;25.20;;
6207;SDS011;3137;51.550;7.060;2023-02-15T11:11:09;50.63;;;25.50;;
6207;SDS011;3137;51.550;7.060;2023-02-15T11:13:41;44.33;;;24.03;;
6207;SDS011;3137;51.550;7.060;2023-02-15T11:16:32;37.13;;;22.13;;
6207;SDS011;3137;51.550;7.060;2023-02-15T11:24:33;42.03;;;20.10;;
6207;SDS011;3137;51.550;7.060;2023-02-15T11:29:55;23.13;;;16.53;;
6207;SDS011;3137;51.550;7.060;2023-02-15T11:32:40;23.60;;;15.83;;
6207;SDS011;3137;51.550;7.060;2023-02-15T11:35:16;23.07;;;15.53;;
6207;SDS011;3137;51.550;7.060;2023-02-15T11:38:11;23.53;;;14.80;;
6207;SDS011;3137;51.550;7.060;2023-02-15T11:40:47;31.10;;;16.57;;
6207;SDS011;3137;51.550;7.060;2023-02-15T11:43:23;26.97;;;17.20;;
6207;SDS011;3137;51.550;7.060;2023-02-15T11:46:01;23.90;;;15.70;;
6207;SDS011;3137;51.550;7.060;2023-02-15T11:48:27;26.97;;;16.77;;
6207;SDS011;3137;51.550;7.060;2023-02-15T11:50:57;23.70;;;15.30;;
6207;SDS011;3137;51.550;7.060;2023-02-15T11:53:23;25.67;;;15.87;;
6207;SDS011;3137;51.550;7.060;2023-02-15T11:55:54;24.97;;;14.73;;
6207;SDS011;3137;51.550;7.060;2023-02-15T11:58:33;25.27;;;15.47;;
6207;SDS011;3137;51.550;7.060;2023-02-15T12:03:48;27.47;;;14.63;;
6207;SDS011;3137;51.550;7.060;2023-02-15T12:09:24;25.73;;;15.10;;
6207;SDS011;3137;51.550;7.060;2023-02-15T12:12:33;20.70;;;13.93;;
6207;SDS011;3137;51.550;7.060;2023-02-15T12:14:54;24.83;;;14.90;;
6207;SDS011;3137;51.550;7.060;2023-02-15T12:17:22;19.57;;;14.17;;
6207;SDS011;3137;51.550;7.060;2023-02-15T12:19:52;24.13;;;15.03;;
6207;SDS011;3137;51.550;7.060;2023-02-15T12:22:26;23.50;;;13.40;;
6207;SDS011;3137;51.550;7.060;2023-02-15T12:24:56;17.47;;;12.57;;
6207;SDS011;3137;51.550;7.060;2023-02-15T12:27:26;18.70;;;12.70;;
6207;SDS011;3137;51.550;7.060;2023-02-15T12:29:59;20.23;;;13.27;;
6207;SDS011;3137;51.550;7.060;2023-02-15T12:32:31;18.07;;;13.77;;
6207;SDS011;3137;51.550;7.060;2023-02-15T12:35:02;26.13;;;13.80;;
6207;SDS011;3137;51.550;7.060;2023-02-15T12:37:35;15.97;;;12.60;;
6207;SDS011;3137;51.550;7.060;2023-02-15T12:40:18;24.43;;;14.17;;
6207;SDS011;3137;51.550;7.060;2023-02-15T12:42:46;23.57;;;13.93;;
6207;SDS011;3137;51.550;7.060;2023-02-15T12:45:29;24.57;;;13.17;;
6207;SDS011;3137;51.550;7.060;2023-02-15T12:48:14;16.87;;;13.00;;
6207;SDS011;3137;51.550;7.060;2023-02-15T12:50:48;22.57;;;13.17;;
6207;SDS011;3137;51.550;7.060;2023-02-15T12:53:32;21.90;;;13.40;;
6207;SDS011;3137;51.550;7.060;2023-02-15T12:56:02;14.10;;;11.73;;
6207;SDS011;3137;51.550;7.060;2023-02-15T12:58:40;15.47;;;11.33;;
6207;SDS011;3137;51.550;7.060;2023-02-15T13:01:11;16.63;;;12.10;;
6207;SDS011;3137;51.550;7.060;2023-02-15T13:06:33;21.83;;;13.63;;
6207;SDS011;3137;51.550;7.060;2023-02-15T13:09:14;21.03;;;12.90;;
6207;SDS011;3137;51.550;7.060;2023-02-15T13:11:45;23.37;;;13.40;;
6207;SDS011;3137;51.550;7.060;2023-02-15T13:14:16;17.50;;;12.20;;
6207;SDS011;3137;51.550;7.060;2023-02-15T13:16:46;14.03;;;12.53;;
6207;SDS011;3137;51.550;7.060;2023-02-15T13:19:16;17.30;;;12.13;;
6207;SDS011;3137;51.550;7.060;2023-02-15T13:21:47;22.90;;;14.60;;
6207;SDS011;3137;51.550;7.060;2023-02-15T13:24:17;16.90;;;12.97;;
6207;SDS011;3137;51.550;7.060;2023-02-15T13:26:49;22.87;;;13.73;;
6207;SDS011;3137;51.550;7.060;2023-02-15T13:29:30;20.77;;;13.60;;
6207;SDS011;3137;51.550;7.060;2023-02-15T13:32:05;35.07;;;13.90;;
6207;SDS011;3137;51.550;7.060;2023-02-15T13:34:41;27.77;;;14.33;;
6207;SDS011;3137;51.550;7.060;2023-02-15T13:37:10;21.73;;;14.67;;
6207;SDS011;3137;51.550;7.060;2023-02-15T13:48:00;24.83;;;13.67;;
6207;SDS011;3137;51.550;7.060;2023-02-15T14:02:57;24.37;;;14.63;;
6207;SDS011;3137;51.550;7.060;2023-02-15T14:14:02;18.97;;;13.40;;
6207;SDS011;3137;51.550;7.060;2023-02-15T14:19:35;21.17;;;15.00;;
6207;SDS011;3137;51.550;7.060;2023-02-15T14:24:42;23.57;;;14.20;;
6207;SDS011;3137;51.550;7.060;2023-02-15T14:27:40;21.77;;;14.17;;
6207;SDS011;3137;51.550;7.060;2023-02-15T14:30:20;22.87;;;13.37;;
6207;SDS011;3137;51.550;7.060;2023-02-15T14:32:52;30.73;;;15.10;;
6207;SDS011;3137;51.550;7.060;2023-02-15T14:35:23;26.27;;;13.70;;
6207;SDS011;3137;51.550;7.060;2023-02-15T14:48:45;20.53;;;14.03;;
6207;SDS011;3137;51.550;7.060;2023-02-15T14:56:41;15.53;;;11.90;;
6207;SDS011;3137;51.550;7.060;2023-02-15T14:59:17;17.53;;;12.40;;
6207;SDS011;3137;51.550;7.060;2023-02-15T15:01:55;23.27;;;13.20;;
6207;SDS011;3137;51.550;7.060;2023-02-15T15:04:28;15.20;;;12.47;;
6207;SDS011;3137;51.550;7.060;2023-02-15T15:09:34;30.90;;;12.90;;
6207;SDS011;3137;51.550;7.060;2023-02-15T15:14:48;18.80;;;12.40;;
6207;SDS011;3137;51.550;7.060;2023-02-15T15:22:28;22.33;;;13.53;;
6207;SDS011;3137;51.550;7.060;2023-02-15T15:24:59;26.47;;;14.33;;
6207;SDS011;3137;51.550;7.060;2023-02-15T15:38:21;32.53;;;14.97;;
6207;SDS011;3137;51.550;7.060;2023-02-15T15:41:13;24.43;;;13.47;;
6207;SDS011;3137;51.550;7.060;2023-02-15T15:43:54;22.30;;;13.10;;
6207;SDS011;3137;51.550;7.060;2023-02-15T15:46:39;19.57;;;13.20;;
6207;SDS011;3137;51.550;7.060;2023-02-15T15:49:31;18.53;;;13.20;;
6207;SDS011;3137;51.550;7.060;2023-02-15T15:52:01;17.37;;;13.47;;
6207;SDS011;3137;51.550;7.060;2023-02-15T15:54:34;18.23;;;13.07;;
6207;SDS011;3137;51.550;7.060;2023-02-15T15:57:06;18.83;;;11.93;;
6207;SDS011;3137;51.550;7.060;2023-02-15T15:59:45;23.40;;;13.50;;
6207;SDS011;3137;51.550;7.060;2023-02-15T16:02:13;19.50;;;12.00;;
6207;SDS011;3137;51.550;7.060;2023-02-15T16:04:42;19.97;;;12.50;;
6207;SDS011;3137;51.550;7.060;2023-02-15T16:09:55;19.63;;;13.27;;
6207;SDS011;3137;51.550;7.060;2023-02-15T16:12:34;14.63;;;12.40;;
6207;SDS011;3137;51.550;7.060;2023-02-15T16:18:04;23.30;;;13.70;;
6207;SDS011;3137;51.550;7.060;2023-02-15T16:20:32;20.87;;;14.90;;
6207;SDS011;3137;51.550;7.060;2023-02-15T16:26:17;17.33;;;12.23;;
6207;SDS011;3137;51.550;7.060;2023-02-15T16:28:52;16.83;;;13.47;;
6207;SDS011;3137;51.550;7.060;2023-02-15T16:31:20;21.13;;;12.73;;
6207;SDS011;3137;51.550;7.060;2023-02-15T16:33:54;24.73;;;13.77;;
6207;SDS011;3137;51.550;7.060;2023-02-15T16:36:22;17.23;;;13.17;;
6207;SDS011;3137;51.550;7.060;2023-02-15T16:43:49;21.97;;;14.37;;
6207;SDS011;3137;51.550;7.060;2023-02-15T16:46:27;23.90;;;13.87;;
6207;SDS011;3137;51.550;7.060;2023-02-15T16:48:58;19.30;;;13.60;;
6207;SDS011;3137;51.550;7.060;2023-02-15T16:51:31;21.80;;;15.20;;
6207;SDS011;3137;51.550;7.060;2023-02-15T16:54:07;19.70;;;13.87;;
6207;SDS011;3137;51.550;7.060;2023-02-15T16:56:40;24.40;;;13.77;;
6207;SDS011;3137;51.550;7.060;2023-02-15T16:59:15;29.17;;;15.77;;
6207;SDS011;3137;51.550;7.060;2023-02-15T17:01:48;27.93;;;15.73;;
6207;SDS011;3137;51.550;7.060;2023-02-15T17:04:26;26.83;;;15.13;;
6207;SDS011;3137;51.550;7.060;2023-02-15T17:07:05;35.07;;;15.67;;
6207;SDS011;3137;51.550;7.060;2023-02-15T17:09:50;22.93;;;15.23;;
6207;SDS011;3137;51.550;7.060;2023-02-15T17:15:25;21.63;;;15.07;;
6207;SDS011;3137;51.550;7.060;2023-02-15T17:17:58;18.27;;;14.77;;
6207;SDS011;3137;51.550;7.060;2023-02-15T17:20:26;23.10;;;15.23;;
6207;SDS011;3137;51.550;7.060;2023-02-15T17:22:53;24.57;;;14.43;;
6207;SDS011;3137;51.550;7.060;2023-02-15T17:25:23;27.40;;;15.13;;
6207;SDS011;3137;51.550;7.060;2023-02-15T17:28:01;20.73;;;14.67;;
6207;SDS011;3137;51.550;7.060;2023-02-15T17:30:29;26.53;;;16.00;;
6207;SDS011;3137;51.550;7.060;2023-02-15T17:32:59;21.20;;;15.43;;
6207;SDS011;3137;51.550;7.060;2023-02-15T17:35:29;24.03;;;16.13;;
6207;SDS011;3137;51.550;7.060;2023-02-15T17:38:10;21.83;;;15.23;;
6207;SDS011;3137;51.550;7.060;2023-02-15T17:40:45;31.90;;;16.93;;
6207;SDS011;3137;51.550;7.060;2023-02-15T17:43:12;28.70;;;18.13;;
6207;SDS011;3137;51.550;7.060;2023-02-15T17:45:40;24.93;;;18.50;;
6207;SDS011;3137;51.550;7.060;2023-02-15T17:48:18;28.63;;;17.17;;
6207;SDS011;3137;51.550;7.060;2023-02-15T17:50:47;25.23;;;17.03;;
6207;SDS011;3137;51.550;7.060;2023-02-15T17:53:17;27.47;;;15.77;;
6207;SDS011;3137;51.550;7.060;2023-02-15T17:55:44;28.53;;;18.27;;
6207;SDS011;3137;51.550;7.060;2023-02-15T17:58:12;29.80;;;17.93;;
6207;SDS011;3137;51.550;7.060;2023-02-15T18:00:43;31.70;;;18.67;;
6207;SDS011;3137;51.550;7.060;2023-02-15T18:03:34;29.17;;;18.60;;
6207;SDS011;3137;51.550;7.060;2023-02-15T18:06:24;40.07;;;19.70;;
6207;SDS011;3137;51.550;7.060;2023-02-15T18:09:10;30.37;;;17.57;;
6207;SDS011;3137;51.550;7.060;2023-02-15T18:11:57;25.97;;;17.80;;
6207;SDS011;3137;51.550;7.060;2023-02-15T18:14:24;20.93;;;15.70;;
6207;SDS011;3137;51.550;7.060;2023-02-15T18:16:51;23.17;;;16.80;;
6207;SDS011;3137;51.550;7.060;2023-02-15T18:19:21;27.53;;;17.63;;